createdAt,value
2022-12-06T00:02:12.914Z,9.75
2022-12-06T00:04:57.840Z,12.32
2022-12-06T00:07:42.972Z,8.50
2022-12-06T00:10:28.372Z,12.45
2022-12-06T00:13:13.604Z,11.25
2022-12-06T00:16:06.249Z,7.40
2022-12-06T00:18:51.453Z,12.07
2022-12-06T00:21:37.343Z,10.52
2022-12-06T00:24:23.344Z,11.43
2022-12-06T00:27:08.972Z,9.55
2022-12-06T00:29:54.131Z,8.45
2022-12-06T00:32:39.150Z,9.38
2022-12-06T00:35:24.251Z,7.65
2022-12-06T00:38:09.843Z,8.93
2022-12-06T00:41:04.204Z,10.52
2022-12-06T00:43:50.367Z,8.32
2022-12-06T00:46:35.971Z,10.88
2022-12-06T00:49:21.008Z,7.38
2022-12-06T00:52:05.910Z,9.20
2022-12-06T00:54:51.206Z,6.53
2022-12-06T00:57:36.279Z,10.57
2022-12-06T01:00:21.443Z,8.95
2022-12-06T01:03:07.514Z,7.45
2022-12-06T01:05:52.621Z,6.28
2022-12-06T01:08:38.278Z,7.30
2022-12-06T01:11:24.528Z,13.00
2022-12-06T01:14:09.540Z,5.45
2022-12-06T01:16:55.001Z,10.52
2022-12-06T01:19:40.430Z,15.38
2022-12-06T01:22:25.832Z,14.85
2022-12-06T01:25:10.976Z,5.88
2022-12-06T01:27:56.134Z,7.80
2022-12-06T01:30:41.159Z,13.27
2022-12-06T01:33:26.590Z,8.82
2022-12-06T01:36:24.402Z,7.88
2022-12-06T01:39:10.608Z,13.70
2022-12-06T01:41:55.863Z,6.07
2022-12-06T01:44:51.300Z,6.95
2022-12-06T01:47:43.002Z,7.35
2022-12-06T01:50:32.726Z,4.82
2022-12-06T01:53:25.289Z,10.88
2022-12-06T01:56:11.471Z,5.72
2022-12-06T01:58:58.654Z,8.43
2022-12-06T02:01:44.252Z,7.68
2022-12-06T02:04:31.630Z,8.88
2022-12-06T02:07:16.559Z,7.65
2022-12-06T02:10:03.180Z,7.25
2022-12-06T02:12:54.503Z,5.07
2022-12-06T02:15:49.066Z,8.48
2022-12-06T02:18:42.572Z,10.43
2022-12-06T02:21:54.913Z,10.82
2022-12-06T02:24:48.974Z,10.57
2022-12-06T02:27:36.751Z,7.90
2022-12-06T02:30:38.832Z,10.93
2022-12-06T02:33:24.194Z,9.68
2022-12-06T02:36:41.643Z,5.90
2022-12-06T02:39:35.730Z,9.82
2022-12-06T02:42:27.110Z,8.93
2022-12-06T02:45:17.763Z,7.93
2022-12-06T02:48:04.617Z,8.13
2022-12-06T02:51:07.256Z,9.70
2022-12-06T02:53:56.364Z,6.55
2022-12-06T02:56:41.530Z,8.82
2022-12-06T02:59:26.840Z,6.80
2022-12-06T03:02:11.984Z,11.18
2022-12-06T03:05:12.180Z,6.72
2022-12-06T03:07:59.789Z,6.53
2022-12-06T03:10:55.998Z,10.45
2022-12-06T03:14:14.924Z,6.35
2022-12-06T03:17:16.802Z,8.00
2022-12-06T03:20:09.032Z,9.55
2022-12-06T03:23:07.112Z,7.47
2022-12-06T03:25:55.334Z,6.70
2022-12-06T03:28:42.587Z,7.68
2022-12-06T03:31:32.217Z,7.47
2022-12-06T03:37:09.315Z,7.45
2022-12-06T03:40:09.698Z,7.72
2022-12-06T03:42:55.635Z,11.98
2022-12-06T03:45:58.032Z,12.27
2022-12-06T03:48:58.571Z,6.43
2022-12-06T03:51:45.353Z,7.80
2022-12-06T03:54:30.739Z,12.43
2022-12-06T03:57:15.972Z,7.25
2022-12-06T04:00:01.648Z,9.80
2022-12-06T04:02:46.872Z,8.13
2022-12-06T04:05:32.175Z,5.40
2022-12-06T04:08:17.662Z,8.35
2022-12-06T04:11:03.924Z,7.55
2022-12-06T04:13:48.891Z,5.47
2022-12-06T04:16:52.815Z,12.52
2022-12-06T04:19:37.900Z,7.68
2022-12-06T04:22:41.702Z,9.45
2022-12-06T04:25:26.956Z,11.68
2022-12-06T04:28:30.868Z,10.10
2022-12-06T04:31:35.257Z,8.95
2022-12-06T04:34:39.439Z,8.02
2022-12-06T04:37:43.130Z,8.43
2022-12-06T04:40:28.204Z,8.65
2022-12-06T04:43:31.681Z,8.90
2022-12-06T04:46:17.740Z,10.15
2022-12-06T04:49:03.215Z,8.90
2022-12-06T04:51:48.123Z,7.43
2022-12-06T04:54:33.766Z,8.48
2022-12-06T04:57:19.025Z,8.43
2022-12-06T05:00:04.996Z,9.10
2022-12-06T05:02:50.126Z,6.68
2022-12-06T05:05:35.092Z,11.07
2022-12-06T05:08:20.225Z,9.73
2022-12-06T05:11:05.921Z,8.10
2022-12-06T05:13:51.040Z,9.23
2022-12-06T05:16:36.582Z,7.90
2022-12-06T05:19:21.588Z,8.40
2022-12-06T05:22:06.679Z,10.85
2022-12-06T05:24:51.766Z,10.38
2022-12-06T05:27:36.954Z,8.13
2022-12-06T05:30:22.168Z,8.07
2022-12-06T05:33:07.451Z,10.88
2022-12-06T05:35:52.553Z,7.95
2022-12-06T05:38:37.712Z,8.13
2022-12-06T05:41:23.572Z,8.85
2022-12-06T05:44:11.199Z,7.93
2022-12-06T05:46:56.295Z,9.80
2022-12-06T05:49:41.452Z,8.20
2022-12-06T05:52:26.818Z,12.57
2022-12-06T05:55:11.604Z,7.55
2022-12-06T05:57:56.659Z,8.30
2022-12-06T06:00:42.133Z,7.70
2022-12-06T06:03:27.144Z,6.15
2022-12-06T06:06:12.517Z,8.55
2022-12-06T06:08:57.633Z,9.48
2022-12-06T06:11:42.883Z,4.78
2022-12-06T06:14:28.247Z,7.88
2022-12-06T06:17:13.494Z,10.93
2022-12-06T06:19:58.959Z,6.97
2022-12-06T06:22:44.031Z,9.38
2022-12-06T06:25:29.369Z,11.13
2022-12-06T06:28:14.711Z,10.70
2022-12-06T06:31:03.919Z,14.10
2022-12-06T06:33:49.093Z,8.38
2022-12-06T06:36:34.282Z,8.32
2022-12-06T06:39:19.716Z,11.15
2022-12-06T06:42:05.202Z,11.88
2022-12-06T06:44:50.241Z,8.50
2022-12-06T06:47:35.612Z,7.63
2022-12-06T06:50:20.776Z,11.05
2022-12-06T06:53:06.981Z,10.27
2022-12-06T06:55:53.960Z,6.30
2022-12-06T06:58:39.360Z,6.78
2022-12-06T07:01:24.507Z,6.70
2022-12-06T07:04:09.745Z,10.80
2022-12-06T07:06:54.914Z,7.70
2022-12-06T07:09:40.092Z,8.63
2022-12-06T07:12:25.344Z,6.80
2022-12-06T07:15:11.508Z,7.97
2022-12-06T07:17:56.366Z,7.93
2022-12-06T07:20:41.574Z,6.70
2022-12-06T07:23:26.529Z,8.98
2022-12-06T07:26:13.606Z,5.93
2022-12-06T07:28:59.882Z,12.10
2022-12-06T07:31:44.664Z,5.97
2022-12-06T07:34:30.319Z,9.00
2022-12-06T07:37:18.164Z,6.38
2022-12-06T07:40:03.711Z,10.00
2022-12-06T07:43:07.500Z,10.25
2022-12-06T07:45:52.708Z,11.13
2022-12-06T07:48:38.350Z,8.15
2022-12-06T07:51:23.836Z,7.32
2022-12-06T07:54:09.183Z,7.18
2022-12-06T07:56:56.242Z,14.65
2022-12-06T07:59:41.125Z,4.72
2022-12-06T08:02:28.164Z,5.78
2022-12-06T08:05:13.517Z,6.18
2022-12-06T08:07:58.778Z,8.30
2022-12-06T08:10:43.929Z,9.07
2022-12-06T08:13:29.674Z,10.30
2022-12-06T08:16:14.803Z,12.63
2022-12-06T08:19:00.508Z,7.68
2022-12-06T08:21:45.583Z,6.18
2022-12-06T08:24:30.962Z,8.88
2022-12-06T08:27:16.076Z,6.25
2022-12-06T08:30:01.602Z,10.70
2022-12-06T08:32:48.173Z,25.20
2022-12-06T08:35:36.631Z,15.68
2022-12-06T08:38:22.076Z,9.35
2022-12-06T08:41:27.779Z,23.17
2022-12-06T08:44:14.687Z,14.02
2022-12-06T08:47:01.841Z,15.93
2022-12-06T08:49:46.873Z,12.27
2022-12-06T08:52:32.211Z,10.05
2022-12-06T08:55:17.594Z,6.07
2022-12-06T08:58:02.925Z,10.07
2022-12-06T09:00:48.157Z,6.60
2022-12-06T09:03:33.386Z,6.18
2022-12-06T09:06:19.653Z,6.28
2022-12-06T09:09:05.893Z,10.02
2022-12-06T09:11:51.337Z,7.07
2022-12-06T09:14:36.494Z,11.98
2022-12-06T09:17:21.839Z,6.53
2022-12-06T09:20:07.733Z,7.13
2022-12-06T09:22:53.172Z,9.23
2022-12-06T09:25:42.007Z,8.10
2022-12-06T09:28:26.925Z,7.85
2022-12-06T09:31:12.191Z,12.07
2022-12-06T09:33:57.452Z,10.55
2022-12-06T09:36:50.923Z,10.23
2022-12-06T09:39:46.732Z,6.13
2022-12-06T09:42:58.562Z,6.10
2022-12-06T09:46:03.559Z,10.60
2022-12-06T09:48:58.141Z,6.45
2022-12-06T09:52:03.606Z,10.38
2022-12-06T09:55:17.132Z,4.38
2022-12-06T09:58:21.435Z,8.02
2022-12-06T10:01:15.795Z,10.65
2022-12-06T10:04:39.503Z,7.95
2022-12-06T10:07:30.833Z,6.18
2022-12-06T10:10:25.302Z,7.47
2022-12-06T10:13:36.372Z,6.20
2022-12-06T10:16:37.934Z,6.05
2022-12-06T10:19:35.298Z,7.03
2022-12-06T10:22:40.377Z,4.10
2022-12-06T10:25:40.703Z,8.77
2022-12-06T10:28:47.298Z,5.78
2022-12-06T10:31:41.184Z,4.57
2022-12-06T10:34:29.013Z,5.72
2022-12-06T10:37:51.630Z,7.25
2022-12-06T10:40:39.666Z,6.60
2022-12-06T10:43:40.447Z,5.13
2022-12-06T10:46:51.272Z,7.47
2022-12-06T10:49:39.453Z,7.65
2022-12-06T10:52:33.576Z,5.60
2022-12-06T10:55:33.070Z,6.07
2022-12-06T10:58:39.238Z,7.40
2022-12-06T11:01:39.204Z,6.55
2022-12-06T11:04:37.320Z,5.40
2022-12-06T11:07:26.931Z,5.55
2022-12-06T11:10:31.683Z,6.38
2022-12-06T11:13:35.764Z,6.78
2022-12-06T11:16:30.127Z,7.00
2022-12-06T11:19:38.250Z,7.93
2022-12-06T11:22:25.966Z,5.47
2022-12-06T11:25:22.204Z,3.03
2022-12-06T11:28:50.697Z,6.93
2022-12-06T11:31:40.957Z,4.40
2022-12-06T11:34:36.443Z,5.18
2022-12-06T11:37:24.283Z,6.57
2022-12-06T11:40:15.648Z,15.18
2022-12-06T11:43:04.485Z,9.82
2022-12-06T11:45:50.066Z,29.15
2022-12-06T11:48:36.173Z,78.38
2022-12-06T11:51:25.406Z,14.30
2022-12-06T11:54:24.474Z,5.65
2022-12-06T11:57:26.766Z,4.22
2022-12-06T12:00:22.038Z,7.03
2022-12-06T12:03:32.601Z,5.15
2022-12-06T12:06:19.903Z,3.15
2022-12-06T12:09:14.375Z,5.45
2022-12-06T12:12:06.409Z,7.00
2022-12-06T12:14:58.496Z,5.20
2022-12-06T12:17:47.281Z,3.17
2022-12-06T12:20:46.467Z,4.10
2022-12-06T12:23:38.754Z,4.68
2022-12-06T12:26:33.790Z,2.60
2022-12-06T12:29:20.977Z,4.38
2022-12-06T12:32:11.580Z,3.78
2022-12-06T12:34:56.703Z,3.15
2022-12-06T12:37:41.754Z,7.13
2022-12-06T12:40:41.404Z,5.80
2022-12-06T12:43:30.425Z,6.10
2022-12-06T12:46:20.991Z,6.30
2022-12-06T12:49:24.445Z,5.50
2022-12-06T12:52:35.999Z,2.72
2022-12-06T12:55:31.062Z,4.35
2022-12-06T12:58:16.062Z,3.78
2022-12-06T13:01:05.898Z,6.30
2022-12-06T13:04:18.087Z,7.10
2022-12-06T13:07:16.948Z,3.50
2022-12-06T13:10:04.062Z,3.28
2022-12-06T13:12:55.483Z,6.63
2022-12-06T13:15:52.666Z,5.90
2022-12-06T13:18:50.391Z,3.00
2022-12-06T13:21:40.410Z,4.65
2022-12-06T13:27:16.823Z,4.95
2022-12-06T13:30:10.856Z,7.10
2022-12-06T13:33:20.491Z,5.93
2022-12-06T13:36:16.176Z,3.28
2022-12-06T13:39:35.692Z,5.35
2022-12-06T13:42:43.591Z,7.18
2022-12-06T13:45:40.745Z,5.70
2022-12-06T13:48:26.174Z,3.40
2022-12-06T13:51:32.994Z,4.22
2022-12-06T13:54:18.053Z,8.25
2022-12-06T13:57:19.790Z,6.38
2022-12-06T14:00:30.565Z,5.88
2022-12-06T14:03:21.560Z,2.97
2022-12-06T14:06:14.801Z,3.08
2022-12-06T14:09:01.886Z,4.30
2022-12-06T14:11:47.570Z,2.83
2022-12-06T14:14:33.635Z,3.53
2022-12-06T14:17:52.629Z,3.17
2022-12-06T14:20:28.969Z,6.63
2022-12-06T14:23:30.260Z,5.63
2022-12-06T14:26:23.995Z,2.38
2022-12-06T14:29:21.439Z,4.38
2022-12-06T14:32:08.633Z,2.85
2022-12-06T14:35:05.775Z,5.53
2022-12-06T14:37:52.964Z,5.15
2022-12-06T14:41:00.386Z,5.95
2022-12-06T14:43:48.861Z,3.65
2022-12-06T14:46:34.243Z,2.60
2022-12-06T14:49:40.149Z,6.18
2022-12-06T14:52:28.566Z,3.80
2022-12-06T14:55:18.148Z,3.67
2022-12-06T14:58:28.272Z,6.68
2022-12-06T15:01:28.507Z,4.00
2022-12-06T15:04:26.886Z,3.25
2022-12-06T15:07:31.302Z,3.00
2022-12-06T15:10:29.879Z,3.10
2022-12-06T15:13:16.160Z,4.85
2022-12-06T15:16:04.104Z,3.40
2022-12-06T15:18:58.900Z,4.47
2022-12-06T15:21:43.796Z,7.05
2022-12-06T15:24:29.230Z,7.57
2022-12-06T15:27:14.435Z,6.57
2022-12-06T15:29:59.979Z,8.88
2022-12-06T15:32:45.149Z,4.85
2022-12-06T15:35:30.408Z,6.88
2022-12-06T15:38:15.522Z,4.97
2022-12-06T15:41:00.683Z,4.47
2022-12-06T15:43:46.347Z,5.82
2022-12-06T15:46:32.926Z,8.05
2022-12-06T15:49:20.797Z,6.70
2022-12-06T15:52:16.645Z,8.90
2022-12-06T15:55:02.251Z,8.80
2022-12-06T15:57:47.726Z,8.35
2022-12-06T16:00:32.942Z,13.10
2022-12-06T16:03:18.511Z,10.77
2022-12-06T16:06:03.827Z,11.70
2022-12-06T16:08:49.818Z,6.43
2022-12-06T16:11:35.255Z,5.68
2022-12-06T16:14:21.495Z,6.82
2022-12-06T16:17:06.841Z,7.95
2022-12-06T16:20:10.564Z,7.25
2022-12-06T16:23:14.525Z,10.52
2022-12-06T16:26:00.145Z,6.32
2022-12-06T16:28:45.346Z,8.02
2022-12-06T16:31:33.151Z,7.32
2022-12-06T16:34:21.898Z,6.20
2022-12-06T16:37:07.122Z,6.72
2022-12-06T16:39:52.324Z,7.30
2022-12-06T16:42:37.726Z,8.27
2022-12-06T16:45:23.520Z,6.75
2022-12-06T16:48:19.714Z,9.68
2022-12-06T16:51:05.087Z,9.10
2022-12-06T16:53:50.519Z,6.78
2022-12-06T16:56:41.386Z,10.93
2022-12-06T16:59:27.154Z,7.65
2022-12-06T17:02:29.579Z,8.40
2022-12-06T17:05:21.564Z,7.93
2022-12-06T17:08:06.863Z,11.63
2022-12-06T17:11:12.260Z,12.48
2022-12-06T17:13:57.083Z,6.47
2022-12-06T17:16:43.762Z,8.13
2022-12-06T17:19:31.153Z,6.60
2022-12-06T17:22:16.833Z,7.75
2022-12-06T17:25:06.476Z,15.82
2022-12-06T17:27:53.905Z,21.67
2022-12-06T17:30:39.751Z,19.45
2022-12-06T17:33:24.666Z,36.60
2022-12-06T17:36:11.432Z,34.22
2022-12-06T17:39:01.865Z,15.48
2022-12-06T17:42:16.019Z,14.85
2022-12-06T17:45:01.299Z,49.75
2022-12-06T17:47:46.888Z,12.35
2022-12-06T17:50:32.110Z,14.43
2022-12-06T17:53:17.072Z,16.77
2022-12-06T17:56:26.920Z,14.55
2022-12-06T17:59:14.687Z,8.90
2022-12-06T18:02:17.263Z,12.27
2022-12-06T18:05:03.480Z,8.75
2022-12-06T18:07:50.779Z,15.70
2022-12-06T18:10:36.103Z,12.20
2022-12-06T18:13:21.421Z,9.95
2022-12-06T18:16:24.473Z,11.60
2022-12-06T18:19:13.357Z,10.35
2022-12-06T18:21:58.506Z,8.55
2022-12-06T18:24:44.682Z,10.07
2022-12-06T18:27:29.834Z,7.50
2022-12-06T18:30:15.197Z,10.90
2022-12-06T18:33:01.300Z,12.50
2022-12-06T18:35:46.485Z,16.55
2022-12-06T18:38:32.246Z,15.77
2022-12-06T18:41:21.760Z,15.88
2022-12-06T18:44:08.150Z,9.88
2022-12-06T18:46:53.219Z,9.18
2022-12-06T18:49:38.550Z,10.07
2022-12-06T18:52:23.826Z,7.90
2022-12-06T18:55:09.015Z,12.13
2022-12-06T18:57:54.234Z,11.38
2022-12-06T19:00:40.836Z,9.93
2022-12-06T19:03:26.187Z,13.27
2022-12-06T19:06:16.325Z,11.40
2022-12-06T19:09:05.267Z,10.05
2022-12-06T19:11:50.420Z,7.50
2022-12-06T19:14:35.645Z,17.35
2022-12-06T19:17:20.999Z,11.68
2022-12-06T19:20:06.906Z,12.70
2022-12-06T19:22:52.248Z,21.17
2022-12-06T19:25:37.462Z,14.77
2022-12-06T19:28:22.464Z,8.40
2022-12-06T19:31:10.942Z,10.30
2022-12-06T19:33:56.016Z,8.40
2022-12-06T19:36:40.979Z,8.10
2022-12-06T19:39:26.971Z,10.30
2022-12-06T19:42:30.837Z,10.20
2022-12-06T19:45:16.056Z,7.32
2022-12-06T19:48:01.388Z,12.10
2022-12-06T19:50:46.300Z,9.05
2022-12-06T19:53:35.913Z,12.25
2022-12-06T19:56:22.363Z,10.02
2022-12-06T19:59:16.370Z,10.27
2022-12-06T20:02:02.463Z,13.45
2022-12-06T20:04:48.728Z,23.92
2022-12-06T20:07:33.821Z,14.55
2022-12-06T20:10:18.959Z,81.68
2022-12-06T20:13:06.258Z,36.72
2022-12-06T20:15:51.540Z,50.65
2022-12-06T20:18:36.685Z,41.78
2022-12-06T20:21:22.173Z,28.77
2022-12-06T20:24:07.714Z,34.50
2022-12-06T20:26:54.515Z,31.35
2022-12-06T20:29:40.214Z,31.20
2022-12-06T20:32:25.380Z,24.17
2022-12-06T20:35:10.881Z,18.85
2022-12-06T20:37:56.178Z,24.30
2022-12-06T20:40:41.182Z,25.20
2022-12-06T20:43:26.217Z,19.85
2022-12-06T20:46:15.472Z,17.48
2022-12-06T20:49:05.427Z,17.77
2022-12-06T20:51:53.286Z,11.13
2022-12-06T20:54:39.129Z,17.98
2022-12-06T20:57:24.942Z,14.43
2022-12-06T21:00:11.636Z,16.70
2022-12-06T21:02:57.196Z,14.85
2022-12-06T21:05:45.264Z,18.13
2022-12-06T21:08:31.712Z,17.73
2022-12-06T21:11:23.045Z,15.95
2022-12-06T21:14:12.667Z,13.57
2022-12-06T21:16:57.749Z,21.33
2022-12-06T21:19:42.874Z,52.85
2022-12-06T21:22:28.050Z,51.72
2022-12-06T21:25:13.022Z,29.48
2022-12-06T21:27:57.878Z,25.35
2022-12-06T21:30:48.725Z,20.83
2022-12-06T21:33:34.238Z,17.55
2022-12-06T21:36:18.944Z,23.90
2022-12-06T21:39:04.659Z,27.13
2022-12-06T21:41:50.136Z,24.10
2022-12-06T21:44:35.039Z,25.13
2022-12-06T21:47:20.254Z,17.60
2022-12-06T21:50:05.781Z,17.38
2022-12-06T21:52:53.565Z,19.05
2022-12-06T21:55:39.391Z,18.75
2022-12-06T21:58:25.032Z,18.65
2022-12-06T22:01:13.416Z,16.50
2022-12-06T22:04:02.208Z,15.05
2022-12-06T22:06:47.557Z,16.83
2022-12-06T22:09:33.005Z,17.60
2022-12-06T22:12:18.332Z,20.65
2022-12-06T22:15:03.704Z,19.77
2022-12-06T22:17:48.898Z,17.08
2022-12-06T22:20:33.727Z,20.70
2022-12-06T22:23:18.938Z,16.10
2022-12-06T22:26:09.588Z,19.23
2022-12-06T22:28:55.225Z,15.75
2022-12-06T22:31:40.617Z,17.33
2022-12-06T22:34:26.065Z,18.52
2022-12-06T22:37:11.195Z,21.63
2022-12-06T22:39:56.272Z,14.20
2022-12-06T22:42:41.116Z,19.35
2022-12-06T22:45:26.376Z,15.07
2022-12-06T22:48:11.598Z,20.05
2022-12-06T22:51:10.434Z,42.03
2022-12-06T22:54:03.370Z,17.70
2022-12-06T22:56:48.952Z,18.00
2022-12-06T22:59:33.685Z,20.45
2022-12-06T23:02:18.869Z,16.48
2022-12-06T23:05:04.124Z,19.90
2022-12-06T23:07:49.476Z,24.88
2022-12-06T23:10:34.369Z,21.80
2022-12-06T23:13:19.534Z,11.82
2022-12-06T23:16:07.722Z,15.35
2022-12-06T23:18:53.047Z,31.95
2022-12-06T23:21:38.629Z,14.45
2022-12-06T23:24:23.980Z,22.80
2022-12-06T23:27:09.257Z,24.02
2022-12-06T23:29:54.661Z,20.98
2022-12-06T23:32:39.564Z,21.83
2022-12-06T23:35:24.840Z,46.88
2022-12-06T23:38:12.822Z,30.73
2022-12-06T23:41:06.446Z,35.03
2022-12-06T23:43:53.443Z,27.85
2022-12-06T23:46:39.770Z,17.90
2022-12-06T23:49:24.897Z,16.13
2022-12-06T23:52:10.010Z,17.55
2022-12-06T23:54:55.185Z,19.92
2022-12-06T23:57:40.412Z,20.55
